AirNav   Get a free Bose Revolve speaker with A20 purchase
 
 1207 users online  

1R4 Woodworth Airport
Woodworth, Louisiana, USA

GOING TO WOODWORTH?


FAA INFORMATION EFFECTIVE 19 JULY 2018

Location

FAA Identifier: 1R4
Lat/Long: 31-07-34.8700N / 092-30-04.6400W
31-07.581167N / 092-30.077333W
31.1263528 / -92.5012889
(estimated)
Elevation: 140 ft. / 43 m (estimated)
Variation: 04E (1985)
From city: 2 miles S of WOODWORTH, LA
Time zone: UTC -5 (UTC -6 during Standard Time)
Zip code: 71430

Airport Operations

Airport use: Open to the public
Activation date: 01/1960
Control tower: no
ARTCC: HOUSTON CENTER
FSS: DE RIDDER FLIGHT SERVICE STATION
NOTAMs facility: DRI (NOTAM-D service available)
Attendance: UNATNDD
Wind indicator: lighted, WINDSOCK LGTS OTS INDEFLY.
Segmented circle: no
Lights: ACTVT MIRL RY 01/19 - 122.8.
Beacon: white-green (lighted land airport)
ARPT ROTG BEACON OTS. Operates sunset to sunrise.

Airport Communications

CTAF: 122.9
WX ASOS at AEX (12 nm N): 123.975 (318-442-6583)
WX ASOS at ESF (19 nm NE): PHONE 318-484-9031

Nearby radio navigation aids

VOR radial/distance  VOR name  Freq  Var
AEXr177/7.8ALEXANDRIA VORTAC116.1003E
FXUr087/(36.9)POLK VOR108.4002E

 
NDB name  Hdg/Dist  Freq  Var  ID
OAKDALE015/30.737903ELRR .-.. .-. .-.
DURALDE353/34.126302EECY . -.-. -.--
GATOR078/35.635902EGUV --. ..- ...-

Airport Services

Parking: tiedowns

Runway Information

Runway 1/19

Dimensions: 3100 x 75 ft. / 945 x 23 m
Surface: asphalt, in fair condition
NUMEROUS 2 INCH CRACKS ON RY.
Weight bearing capacity: 
Single wheel: 12.0
Runway edge lights: medium intensity
RUNWAY 1  RUNWAY 19
Latitude: 31-07.337000N31-07.825333N
Longitude: 092-30.165500W092-29.989167W
Traffic pattern: leftleft
Markings: basic, in good conditionbasic, in good condition
Visual slope indicator: 2-box SAVASI on right (4.00 degrees glide path)
SAVASI OTS INDEFLY.
2-box SAVASI on right (4.00 degrees glide path)
SAVASI OTS INDEFLY.
Obstructions: 64 ft. trees, 553 ft. from runway, 69 ft. left of centerline, 5:1 slope to clear63 ft. trees, 635 ft. from runway, 128 ft. right of centerline, 6:1 slope to clear

Airport Ownership and Management from official FAA records

Ownership: Publicly-owned
Owner: LA DEPT OF AG AND FORESTRY
PO BOX 298
WOODWORTH, LA 71485
Phone 318-487-5989
Manager: RENE' SIMON
LA DEPT OF AG AND FORESTRY, 5825 FLORIDA BLVD, SUITE 1002
BATON ROUGE, LA 70806-3481
Phone (225) 922-8074
ADDITIONAL CONTACT DAMIAN JOHNSON 225-301-8144

Airport Operational Statistics

Aircraft based on the field: 11
Single engine airplanes: 9
Helicopters: 2
    
Aircraft operations: avg 49/day *
56% local general aviation
44% transient general aviation
* for 12-month period ending 05 June 2018

Additional Remarks

HELICOPTER TRAFFIC ON FIELD.

Instrument Procedures

There are no published instrument procedures at 1R4.

Some nearby airports with instrument procedures:

KAEX - Alexandria International Airport (12 nm N)
2R6 - Bunkie Municipal Airport (17 nm SE)
KESF - Esler Regional Airport (19 nm NE)
KMKV - Marksville Municipal Airport (22 nm E)
KACP - Allen Parish Airport (25 nm SW)
 
Loc | Ops | Rwys | IFR | FBO | Links
Com | Nav | Svcs | Stats | Notes


 
Area around 1R4 (Woodworth Airport)
 
Road maps at: MapQuest Bing Google
 
Aerial photo
No photo
 
Sectional chart

 
Airport distance calculator
Flying to Woodworth Airport? Find the distance to fly.

From to 1R4

Sunrise and sunset
Times for 23-Jul-2018
 Local
(UTC-5)
 Zulu
(UTC)
Morning civil twilight05:5510:55
Sunrise06:2211:22
Sunset20:1101:11
Evening civil twilight20:3701:37

Current date and time
Zulu (UTC)  23-Jul-2018 13:19:32
Local (UTC-5)  23-Jul-2018 08:19:32
 
METAR
KAEX 
13nm N 
231253Z 00000KT 7SM CLR 28/24 A2985 RMK AO2 SLP110 T02780244
KESF 
20nm NE 
231253Z AUTO 00000KT 10SM CLR 26/25 A2987 RMK AO2 SLP112 T02610250
KBKB 
22nm W 
230854Z AUTO 00000KT 10SM CLR 28/24 A2983 RMK AO2 SLP124 T02780239 53007
KACP 
25nm SW 
231255Z AUTO 24003KT 10SM CLR 27/24 A2987 RMK AO2 T02730243
KPOE 
25nm W 
231258Z AUTO 31006KT 9SM BKN160 28/23 A2987 RMK AO2 SLP113 T02760232
TAF
KAEX 
13nm N 
231122Z 2312/2412 VRB04KT P6SM BKN250 FM231500 VRB05KT P6SM BKN250 FM232100 34006KT P6SM VCTS SCT050CB BKN200 FM240200 VRB05KT P6SM SCT250
NOTAMs
Click for the latest NOTAMs
NOTAMs are issued by the DoD/FAA and will open in a separate window not controlled by AirNav.

 

 
 

Would you like to see your business listed on this page?

 If your business provides an interesting product or service to pilots, flight crews, aircraft, or users of the Woodworth Airport, you should consider listing it here.  To start the listing process, click on the button below
 
Add a business
 

Other Pages about Woodworth Airport

Update a link
 
Copyright © AirNav, LLC. All rights reserved. Privacy Policy  Contact